Time;durP1;ratioP1;P1;durP2;ratioP2;P2;SDS_P1;SDS_P2;PMS_P1;PMS_P2;Temp;Humidity;BMP_temperature;BMP_pressure;BME280_temperature;BME280_humidity;BME280_pressure;Samples;Min_cycle;Max_cycle;Signal;HPM_P1;HPM_P2
2024/02/01 00:01:36;;;;;;;9.45;4.15;;;9.60;68.30;;;;;;4996834;28;20026;-80
2024/02/01 00:04:02;;;;;;;7.63;4.18;;;9.60;68.30;;;;;;4996547;28;20156;-85
2024/02/01 00:06:27;;;;;;;10.27;3.60;;;9.50;68.60;;;;;;4995768;28;20069;-78
2024/02/01 00:08:53;;;;;;;12.07;4.28;;;9.50;68.50;;;;;;4993978;28;20128;-77
2024/02/01 00:11:18;;;;;;;7.20;3.40;;;9.50;68.40;;;;;;4995411;28;20518;-84
2024/02/01 00:13:44;;;;;;;5.55;3.35;;;9.50;68.10;;;;;;4996147;28;20034;-84
2024/02/01 00:16:09;;;;;;;9.60;3.60;;;9.40;67.70;;;;;;4996294;28;20022;-84
2024/02/01 00:18:35;;;;;;;7.43;3.63;;;9.40;67.70;;;;;;4995555;28;20054;-87
2024/02/01 00:21:01;;;;;;;8.85;3.33;;;9.40;67.30;;;;;;4995041;28;20376;-84
2024/02/01 00:23:26;;;;;;;9.23;3.35;;;9.40;67.10;;;;;;4995358;28;20022;-86
2024/02/01 00:25:52;;;;;;;10.20;3.40;;;9.40;67.10;;;;;;4998164;28;20050;-87
2024/02/01 00:28:17;;;;;;;8.63;3.17;;;9.40;66.70;;;;;;4997886;28;20034;-83
2024/02/01 00:30:43;;;;;;;8.60;3.15;;;9.40;66.90;;;;;;4998544;28;20030;-86
2024/02/01 00:33:09;;;;;;;6.25;3.13;;;9.30;67.00;;;;;;4998566;28;20041;-83
2024/02/01 00:35:34;;;;;;;14.10;3.30;;;9.30;67.00;;;;;;4998807;28;20459;-87
2024/02/01 00:38:00;;;;;;;6.80;2.78;;;9.30;66.70;;;;;;4998338;28;20026;-87
2024/02/01 00:40:25;;;;;;;12.98;3.25;;;9.30;66.30;;;;;;4998369;28;20028;-80
2024/02/01 00:42:51;;;;;;;6.75;3.13;;;9.30;66.30;;;;;;4998668;28;20033;-87
2024/02/01 00:45:16;;;;;;;9.77;3.20;;;9.30;66.20;;;;;;4998502;28;20360;-83
2024/02/01 00:47:47;;;;;;;5.93;2.58;;;9.30;65.90;;;;;;4998214;28;20124;-85
2024/02/01 00:50:12;;;;;;;6.18;2.60;;;9.30;65.50;;;;;;4998257;28;20026;-83
2024/02/01 00:52:38;;;;;;;6.88;2.50;;;9.40;64.90;;;;;;4998774;28;20537;-86
2024/02/01 00:55:06;;;;;;;6.07;2.67;;;9.40;64.20;;;;;;5002170;28;20085;-87
2024/02/01 00:57:32;;;;;;;8.80;2.40;;;9.50;64.20;;;;;;5002001;28;20032;-89
2024/02/01 00:59:57;;;;;;;8.15;2.40;;;9.50;63.80;;;;;;5002125;28;20085;-86
2024/02/01 01:02:23;;;;;;;4.68;2.30;;;9.50;63.70;;;;;;5001245;28;20029;-87
2024/02/01 01:04:48;;;;;;;6.35;2.67;;;9.50;63.70;;;;;;4997761;28;20083;-84
2024/02/01 01:07:14;;;;;;;6.47;2.30;;;9.50;63.60;;;;;;4997710;28;20461;-87
2024/02/01 01:09:39;;;;;;;6.93;2.75;;;9.50;63.70;;;;;;4997656;28;20018;-85
2024/02/01 01:12:05;;;;;;;11.15;2.50;;;9.50;63.40;;;;;;4997823;28;20041;-85
2024/02/01 01:14:31;;;;;;;6.78;2.63;;;9.50;63.30;;;;;;4997991;28;20038;-86
2024/02/01 01:16:56;;;;;;;9.13;2.58;;;9.50;63.60;;;;;;4997045;28;20029;-84
2024/02/01 01:19:22;;;;;;;5.15;2.30;;;9.50;63.30;;;;;;4996828;28;20029;-84
2024/02/01 01:21:48;;;;;;;7.63;2.88;;;9.40;63.40;;;;;;4997470;28;20383;-84
2024/02/01 01:24:13;;;;;;;7.80;2.53;;;9.50;63.40;;;;;;4997019;28;20026;-82
2024/02/01 01:26:39;;;;;;;5.00;2.60;;;9.50;63.00;;;;;;4997330;28;20121;-86
2024/02/01 01:29:04;;;;;;;3.75;2.42;;;9.50;62.90;;;;;;4998191;28;20026;-86
2024/02/01 01:31:30;;;;;;;5.88;2.80;;;9.60;63.00;;;;;;4997639;28;20022;-87
2024/02/01 01:33:55;;;;;;;6.05;2.83;;;9.50;63.90;;;;;;4998015;28;20048;-87
2024/02/01 01:36:21;;;;;;;7.75;2.75;;;9.60;62.80;;;;;;4996761;28;20022;-85
2024/02/01 01:38:47;;;;;;;6.93;2.63;;;9.60;62.60;;;;;;4981345;28;20038;-85
2024/02/01 01:41:12;;;;;;;7.40;2.63;;;9.60;62.60;;;;;;4997217;28;20037;-86
2024/02/01 01:43:38;;;;;;;8.82;2.80;;;9.50;63.00;;;;;;4997106;28;20018;-86
2024/02/01 01:46:04;;;;;;;8.63;3.42;;;9.50;63.10;;;;;;4997639;28;20076;-85
2024/02/01 01:48:31;;;;;;;8.45;3.38;;;9.50;63.50;;;;;;4996835;28;20033;-86
2024/02/01 01:50:58;;;;;;;13.73;6.75;;;9.50;63.50;;;;;;4997448;28;20029;-87
2024/02/01 01:53:25;;;;;;;8.50;3.78;;;9.50;64.00;;;;;;4997261;28;20077;-87
2024/02/01 01:55:52;;;;;;;8.38;3.40;;;9.30;63.80;;;;;;4997353;28;20092;-87
2024/02/01 01:58:18;;;;;;;5.32;2.20;;;9.40;63.40;;;;;;4997411;28;20475;-85
2024/02/01 02:00:44;;;;;;;6.78;2.67;;;9.30;63.60;;;;;;4997335;28;20489;-87
2024/02/01 02:03:11;;;;;;;7.60;2.38;;;9.40;63.40;;;;;;4997426;28;20022;-87
2024/02/01 02:05:37;;;;;;;3.83;2.42;;;9.30;63.30;;;;;;5000579;28;20032;-86
2024/02/01 02:08:04;;;;;;;4.50;2.88;;;9.40;62.90;;;;;;5001303;28;20034;-86
2024/02/01 02:10:30;;;;;;;8.23;2.83;;;9.50;63.10;;;;;;5000725;28;20018;-85
2024/02/01 02:12:55;;;;;;;7.32;3.08;;;9.40;63.20;;;;;;5001085;28;20034;-87
2024/02/01 02:15:21;;;;;;;4.22;2.47;;;9.40;63.50;;;;;;5001282;28;20375;-88
2024/02/01 02:17:47;;;;;;;4.50;2.33;;;9.30;64.20;;;;;;5001206;28;20030;-85
2024/02/01 02:20:16;;;;;;;6.93;2.78;;;9.30;64.50;;;;;;5002311;28;20033;-86
2024/02/01 02:22:51;;;;;;;13.48;4.05;;;9.30;64.90;;;;;;5001484;28;20030;-86
2024/02/01 02:25:17;;;;;;;7.97;3.70;;;9.20;66.40;;;;;;4985007;28;20057;-86
2024/02/01 02:27:43;;;;;;;10.35;3.78;;;9.20;66.50;;;;;;5000170;28;20277;-81
2024/02/01 02:30:12;;;;;;;8.80;3.72;;;9.10;67.20;;;;;;5000238;28;20350;-87
2024/02/01 02:32:41;;;;;;;10.65;4.40;;;9.00;67.90;;;;;;5000249;28;20106;-85
2024/02/01 02:35:14;;;;;;;12.48;4.20;;;8.80;69.00;;;;;;5001801;28;20034;-87
2024/02/01 02:37:50;;;;;;;9.45;3.80;;;8.70;69.80;;;;;;5003691;28;20060;-85
2024/02/01 02:40:17;;;;;;;8.20;3.70;;;8.60;70.00;;;;;;4984972;28;20053;-85
2024/02/01 02:42:43;;;;;;;8.57;3.88;;;8.60;70.20;;;;;;5001754;28;20030;-86
2024/02/01 02:45:10;;;;;;;6.90;3.70;;;8.60;70.10;;;;;;5002831;28;20026;-87
2024/02/01 02:47:36;;;;;;;9.23;3.70;;;8.60;70.00;;;;;;4986493;28;20033;-88
2024/02/01 02:50:05;;;;;;;8.27;4.00;;;8.60;69.80;;;;;;5002082;28;20026;-87
2024/02/01 02:52:32;;;;;;;8.07;3.42;;;8.70;69.70;;;;;;5001863;28;20034;-85
2024/02/01 02:54:58;;;;;;;4.32;3.38;;;8.70;69.60;;;;;;5002084;28;20112;-85
2024/02/01 02:57:23;;;;;;;8.23;3.40;;;8.80;69.40;;;;;;5003258;28;20073;-86
2024/02/01 02:59:50;;;;;;;6.72;3.53;;;8.80;69.10;;;;;;5001174;28;20022;-86
2024/02/01 03:02:16;;;;;;;11.02;3.90;;;8.90;69.00;;;;;;5000060;28;20022;-80
2024/02/01 03:04:41;;;;;;;8.30;3.40;;;8.90;69.00;;;;;;4982815;28;20030;-85
2024/02/01 03:07:08;;;;;;;28.48;11.30;;;8.90;69.10;;;;;;4999529;28;20068;-85
2024/02/01 03:09:35;;;;;;;27.63;11.60;;;8.90;69.80;;;;;;4999958;28;20125;-88
2024/02/01 03:12:09;;;;;;;15.50;7.60;;;8.80;70.40;;;;;;5000025;28;20032;-87
2024/02/01 03:14:40;;;;;;;9.82;4.90;;;8.90;70.50;;;;;;4999791;28;20029;-86
2024/02/01 03:17:10;;;;;;;10.50;4.63;;;8.90;70.70;;;;;;5017321;28;20101;-80
2024/02/01 03:19:38;;;;;;;6.97;3.85;;;8.90;71.40;;;;;;4999853;28;20076;-83
2024/02/01 03:22:05;;;;;;;10.27;4.35;;;8.90;71.30;;;;;;4999433;28;20030;-84
2024/02/01 03:24:31;;;;;;;8.23;4.30;;;9.00;71.10;;;;;;4999456;28;20057;-86
2024/02/01 03:27:00;;;;;;;8.18;4.40;;;9.00;71.50;;;;;;4999506;28;20032;-86
2024/02/01 03:29:27;;;;;;;9.82;6.13;;;8.90;72.20;;;;;;4983665;28;20467;-84
2024/02/01 03:31:53;;;;;;;8.93;5.40;;;8.90;72.90;;;;;;4999282;28;20044;-86
2024/02/01 03:34:22;;;;;;;11.65;5.47;;;8.90;72.60;;;;;;4999634;28;20026;-86
2024/02/01 03:36:50;;;;;;;8.48;5.53;;;8.90;72.80;;;;;;4999302;28;20080;-86
2024/02/01 03:39:25;;;;;;;9.23;5.85;;;8.90;73.00;;;;;;4999401;28;20548;-85
2024/02/01 03:41:51;;;;;;;11.13;6.25;;;8.90;73.00;;;;;;4999261;28;20116;-85
2024/02/01 03:44:17;;;;;;;9.55;6.72;;;8.80;73.40;;;;;;4999088;28;20065;-86
2024/02/01 03:46:43;;;;;;;13.52;6.22;;;8.80;73.50;;;;;;4999005;28;20137;-85
2024/02/01 03:49:10;;;;;;;11.55;6.65;;;8.80;73.60;;;;;;5016672;28;20017;-85
2024/02/01 03:51:36;;;;;;;10.48;6.30;;;8.80;73.60;;;;;;4999192;28;20057;-85
2024/02/01 03:54:05;;;;;;;13.52;6.45;;;8.70;73.10;;;;;;4998970;28;20065;-84
2024/02/01 03:56:32;;;;;;;11.07;5.78;;;8.80;73.00;;;;;;5017014;28;20030;-82
2024/02/01 03:59:01;;;;;;;11.65;5.70;;;8.80;73.00;;;;;;5017103;28;20145;-83
2024/02/01 04:01:30;;;;;;;10.68;5.75;;;8.70;73.20;;;;;;5018439;28;20022;-86
2024/02/01 04:03:57;;;;;;;9.18;5.45;;;8.70;73.20;;;;;;4999186;28;20033;-88
2024/02/01 04:06:24;;;;;;;12.02;5.82;;;8.70;73.10;;;;;;4982973;28;20033;-87
2024/02/01 04:08:50;;;;;;;9.23;6.40;;;8.70;72.70;;;;;;4998368;28;20041;-87
2024/02/01 04:11:18;;;;;;;11.93;6.15;;;8.70;72.70;;;;;;4998458;28;20044;-83
2024/02/01 04:13:44;;;;;;;14.05;5.80;;;8.50;73.00;;;;;;4997972;28;20037;-80
2024/02/01 04:16:09;;;;;;;11.63;6.38;;;8.50;73.00;;;;;;4997797;28;20032;-84
2024/02/01 04:18:35;;;;;;;11.63;5.65;;;8.40;72.90;;;;;;4997717;28;20127;-84
2024/02/01 04:21:01;;;;;;;13.27;6.50;;;8.40;72.90;;;;;;4997638;28;20116;-84
2024/02/01 04:23:31;;;;;;;13.18;6.15;;;8.40;73.00;;;;;;4997868;28;20052;-84
2024/02/01 04:25:57;;;;;;;9.93;5.88;;;8.30;73.00;;;;;;4997560;28;20041;-83
2024/02/01 04:28:22;;;;;;;11.85;5.90;;;8.40;72.90;;;;;;4996309;28;20029;-83
2024/02/01 04:30:51;;;;;;;12.13;5.72;;;8.30;72.70;;;;;;4997865;28;20053;-83
2024/02/01 04:33:23;;;;;;;8.52;4.93;;;8.40;72.10;;;;;;4997805;28;20124;-84
2024/02/01 04:35:49;;;;;;;10.15;5.28;;;8.30;71.80;;;;;;4997077;28;20022;-86
2024/02/01 04:38:15;;;;;;;9.57;5.82;;;8.40;71.50;;;;;;4997320;28;20028;-82
2024/02/01 04:40:44;;;;;;;8.43;5.10;;;8.40;70.70;;;;;;4997116;28;20121;-84
2024/02/01 04:43:11;;;;;;;8.13;5.85;;;8.50;70.50;;;;;;4997077;28;20081;-80
2024/02/01 04:45:37;;;;;;;15.48;5.38;;;8.50;70.40;;;;;;4996850;28;20018;-82
2024/02/01 04:48:10;;;;;;;8.95;5.25;;;8.50;70.30;;;;;;4996852;28;20120;-83
2024/02/01 04:50:40;;;;;;;9.85;5.20;;;8.50;69.20;;;;;;4996911;28;20084;-83
2024/02/01 04:53:06;;;;;;;9.13;4.60;;;8.50;69.10;;;;;;4997553;28;20069;-84
2024/02/01 04:55:32;;;;;;;7.05;4.10;;;8.50;68.70;;;;;;4997880;28;20104;-85
2024/02/01 04:57:58;;;;;;;8.95;4.65;;;8.50;68.20;;;;;;4997545;28;20030;-83
2024/02/01 05:00:26;;;;;;;8.57;5.50;;;8.50;68.00;;;;;;4997741;28;20044;-84
2024/02/01 05:02:52;;;;;;;10.10;4.55;;;8.60;67.00;;;;;;4998023;28;20497;-87
2024/02/01 05:05:18;;;;;;;8.00;4.68;;;8.50;67.60;;;;;;4997000;28;20113;-82
2024/02/01 05:07:43;;;;;;;9.57;5.07;;;8.60;66.80;;;;;;4997544;28;20107;-83
2024/02/01 05:10:12;;;;;;;12.35;5.38;;;8.70;66.70;;;;;;4996915;28;20037;-81
2024/02/01 05:12:41;;;;;;;15.07;5.30;;;8.70;66.70;;;;;;4997642;28;20033;-82
2024/02/01 05:15:11;;;;;;;10.55;6.47;;;8.70;66.70;;;;;;5014410;28;20022;-82
2024/02/01 05:17:37;;;;;;;10.57;5.63;;;8.70;67.70;;;;;;4988865;28;20050;-85
2024/02/01 05:20:08;;;;;;;13.98;5.93;;;8.70;66.40;;;;;;4978132;28;20554;-82
2024/02/01 05:22:41;;;;;;;12.25;6.07;;;8.70;66.40;;;;;;4995076;28;20034;-85
2024/02/01 05:25:18;;;;;;;11.75;6.07;;;8.80;65.70;;;;;;4977046;28;20051;-83
2024/02/01 05:27:50;;;;;;;11.48;5.82;;;8.80;65.30;;;;;;4977502;28;20026;-85
2024/02/01 05:30:16;;;;;;;10.57;5.70;;;8.90;65.20;;;;;;4978346;28;20030;-89
2024/02/01 05:32:51;;;;;;;7.63;5.28;;;8.90;65.30;;;;;;4980180;28;20551;-89
2024/02/01 05:35:24;;;;;;;12.55;6.00;;;8.90;64.40;;;;;;4978958;28;20460;-89
2024/02/01 05:37:50;;;;;;;10.52;5.68;;;8.90;64.00;;;;;;4978792;28;20022;-89
2024/02/01 05:40:17;;;;;;;8.93;5.45;;;9.00;64.50;;;;;;4981917;28;20026;-89
2024/02/01 05:42:46;;;;;;;9.57;5.82;;;9.00;64.70;;;;;;4983132;28;20026;-91
2024/02/01 05:45:12;;;;;;;12.25;5.50;;;9.00;64.90;;;;;;4983155;28;20475;-89
2024/02/01 05:47:38;;;;;;;12.00;5.18;;;9.10;65.10;;;;;;4982419;28;20029;-88
2024/02/01 05:50:06;;;;;;;10.63;5.65;;;9.10;64.80;;;;;;4986055;28;20022;-89
2024/02/01 05:52:38;;;;;;;9.43;5.22;;;9.10;64.90;;;;;;4992814;28;20030;-85
2024/02/01 05:55:10;;;;;;;11.68;5.18;;;9.10;64.40;;;;;;4984905;28;20026;-89
2024/02/01 05:57:36;;;;;;;10.30;5.65;;;9.10;64.50;;;;;;4982280;28;20026;-84
2024/02/01 06:00:06;;;;;;;10.07;5.93;;;9.10;64.80;;;;;;4981222;28;20073;-86
2024/02/01 06:02:33;;;;;;;13.00;5.97;;;9.10;65.10;;;;;;4981775;28;20022;-89
2024/02/01 06:04:58;;;;;;;7.63;5.22;;;9.10;65.20;;;;;;4983865;28;20030;-88
2024/02/01 06:07:25;;;;;;;12.95;5.85;;;9.10;65.10;;;;;;4982962;28;20022;-87
2024/02/01 06:09:51;;;;;;;11.98;6.03;;;9.10;65.70;;;;;;4982936;28;20030;-86
2024/02/01 06:12:17;;;;;;;8.23;5.38;;;9.10;65.50;;;;;;4966612;28;20125;-88
2024/02/01 06:14:42;;;;;;;12.15;5.93;;;9.10;65.60;;;;;;4982055;28;20449;-89
2024/02/01 06:17:08;;;;;;;13.52;6.72;;;9.10;65.60;;;;;;4983991;28;20076;-88
2024/02/01 06:19:34;;;;;;;12.75;6.05;;;9.10;65.60;;;;;;4967373;28;20037;-85
2024/02/01 06:22:00;;;;;;;7.60;5.25;;;9.10;65.60;;;;;;4982430;28;20044;-89
2024/02/01 06:24:26;;;;;;;8.70;5.65;;;9.10;65.60;;;;;;4999740;28;20037;-91
2024/02/01 06:26:54;;;;;;;10.73;6.00;;;9.10;65.80;;;;;;4982040;28;20053;-89
2024/02/01 06:29:20;;;;;;;10.63;6.05;;;9.10;65.80;;;;;;4982864;28;20026;-87
2024/02/01 06:31:46;;;;;;;7.47;5.13;;;9.10;65.60;;;;;;4999873;28;20026;-87
2024/02/01 06:34:12;;;;;;;8.73;5.43;;;9.10;65.60;;;;;;4982368;28;20487;-87
2024/02/01 06:36:40;;;;;;;7.82;5.25;;;9.10;65.50;;;;;;5000289;28;20073;-86
2024/02/01 06:40:10;;;;;;;10.13;4.95;;;9.10;65.50;;;;;;4982590;28;20357;-84
2024/02/01 06:42:02;;;;;;;7.80;5.00;;;9.20;64.90;;;;;;4987569;28;20026;-87
2024/02/01 06:44:28;;;;;;;10.05;4.35;;;9.30;64.30;;;;;;4982598;28;20395;-87
2024/02/01 06:54:53;;;;;;;;;;;9.40;63.70;;;;;;4998397;28;20491;-83
2024/02/01 06:57:22;;;;;;;9.60;5.25;;;9.40;64.00;;;;;;4989530;28;19906;-88
2024/02/01 07:02:35;;;;;;;8.90;4.72;;;9.30;64.50;;;;;;5012227;28;20471;-85
2024/02/01 07:05:21;;;;;;;;;;;9.30;64.30;;;;;;4994752;28;20026;-77
2024/02/01 07:07:50;;;;;;;11.18;5.53;;;9.30;64.30;;;;;;4980045;28;19996;-84
2024/02/01 07:10:21;;;;;;;8.77;4.72;;;9.30;64.50;;;;;;4980909;28;20459;-85
2024/02/01 07:15:31;;;;;;;11.07;4.65;;;9.30;64.70;;;;;;4996920;28;20125;-82
2024/02/01 07:18:05;;;;;;;8.30;4.68;;;9.30;65.10;;;;;;4996734;28;20054;-85
2024/02/01 07:20:50;;;;;;;10.50;5.65;;;9.30;64.80;;;;;;4979090;28;20033;-84
2024/02/01 07:25:48;;;;;;;10.85;5.32;;;9.20;65.30;;;;;;4998012;28;20495;-82
2024/02/01 07:58:43;;;;;;;10.32;6.00;;;9.10;67.80;;;;;;5006977;28;20042;-79
2024/02/01 08:01:14;;;;;;;10.00;6.70;;;9.10;68.70;;;;;;4998728;28;20023;-83
2024/02/01 08:04:12;;;;;;;11.70;6.75;;;9.00;69.80;;;;;;4993662;28;20037;-83
2024/02/01 08:09:24;;;;;;;13.15;6.63;;;8.80;72.20;;;;;;4996085;28;20511;-82
2024/02/01 08:11:49;;;;;;;19.15;5.90;;;8.80;72.40;;;;;;4978566;28;20522;-82
2024/02/01 08:18:35;;;;;;;16.40;7.20;;;9.20;74.50;;;;;;4995146;28;20122;-83
2024/02/01 08:22:05;;;;;;;11.35;7.20;;;9.40;71.90;;;;;;4994642;28;20022;-90
2024/02/01 08:35:52;;;;;;;8.85;5.05;;;10.00;69.10;;;;;;4989673;23;20063;-85
2024/02/01 08:38:18;;;;;;;6.05;4.30;;;9.80;68.60;;;;;;5016956;28;20378;-87
2024/02/01 08:40:43;;;;;;;7.15;4.78;;;9.80;69.10;;;;;;5016590;28;20025;-87
2024/02/01 08:43:11;;;;;;;8.60;4.25;;;9.80;70.00;;;;;;5016255;28;20482;-86
2024/02/01 08:45:39;;;;;;;9.23;4.13;;;9.80;69.90;;;;;;5016282;28;20029;-85
2024/02/01 08:48:06;;;;;;;8.32;4.20;;;9.80;68.70;;;;;;5015927;28;20375;-85
2024/02/01 08:50:42;;;;;;;8.30;3.92;;;9.80;69.40;;;;;;5015992;28;20371;-85
2024/02/01 08:53:13;;;;;;;9.68;3.80;;;9.70;69.80;;;;;;5015899;28;20025;-85
2024/02/01 08:55:39;;;;;;;8.63;3.75;;;9.40;70.10;;;;;;5033569;28;20032;-83
2024/02/01 08:58:08;;;;;;;7.30;3.42;;;9.40;70.70;;;;;;5033521;28;20474;-82
2024/02/01 09:00:36;;;;;;;8.45;3.78;;;9.40;70.70;;;;;;5016093;28;20029;-83
2024/02/01 09:03:03;;;;;;;8.18;4.05;;;9.30;71.30;;;;;;5033242;28;20076;-83
2024/02/01 09:05:48;;;;;;;14.13;4.00;;;9.20;71.20;;;;;;5015886;28;20030;-83
2024/02/01 09:08:24;;;;;;;5.80;3.83;;;9.00;71.80;;;;;;5033387;28;20075;-82
2024/02/01 09:10:57;;;;;;;8.50;3.83;;;9.00;72.10;;;;;;5032884;28;20022;-82
2024/02/01 09:13:28;;;;;;;7.28;3.45;;;8.80;71.80;;;;;;5032691;28;20482;-82
2024/02/01 09:15:53;;;;;;;6.05;3.15;;;8.70;73.20;;;;;;5032915;28;20021;-82
2024/02/01 09:18:19;;;;;;;4.47;2.97;;;8.60;73.00;;;;;;5033192;28;20115;-82
2024/02/01 09:20:46;;;;;;;5.97;2.42;;;8.50;73.20;;;;;;5034740;28;20053;-81
2024/02/01 09:23:12;;;;;;;6.43;2.92;;;8.40;74.10;;;;;;5033151;28;20541;-82
2024/02/01 09:25:40;;;;;;;3.33;2.25;;;8.50;73.60;;;;;;5033070;28;20041;-80
2024/02/01 09:28:11;;;;;;;4.32;2.35;;;8.50;74.10;;;;;;5015238;28;20116;-82
2024/02/01 09:30:47;;;;;;;4.15;2.50;;;8.40;73.60;;;;;;5033298;28;20021;-82
2024/02/01 09:33:14;;;;;;;4.20;2.33;;;8.40;73.40;;;;;;5032687;28;20095;-82
2024/02/01 09:35:40;;;;;;;3.03;2.35;;;8.30;73.50;;;;;;5032516;28;20022;-81
2024/02/01 09:38:06;;;;;;;4.82;1.83;;;8.30;74.90;;;;;;5033002;28;20079;-81
2024/02/01 09:40:32;;;;;;;3.30;1.80;;;8.30;73.50;;;;;;5032923;28;20128;-80
2024/02/01 09:42:57;;;;;;;5.30;2.45;;;8.40;73.00;;;;;;5032789;28;20017;-81
2024/02/01 09:45:29;;;;;;;4.55;1.90;;;8.50;73.20;;;;;;5032597;28;20028;-80
2024/02/01 09:47:56;;;;;;;8.38;2.13;;;8.50;73.40;;;;;;5032640;28;20026;-81
2024/02/01 09:50:23;;;;;;;4.30;1.83;;;8.50;73.70;;;;;;5032838;28;20497;-83
2024/02/01 09:52:50;;;;;;;4.38;2.05;;;8.50;73.90;;;;;;5032506;28;20029;-82
2024/02/01 09:55:19;;;;;;;1.88;1.55;;;8.50;74.10;;;;;;5032495;28;20378;-81
2024/02/01 09:57:47;;;;;;;1.83;1.55;;;8.40;73.30;;;;;;5032703;28;20053;-83
2024/02/01 10:00:22;;;;;;;3.20;1.73;;;8.50;74.00;;;;;;5032578;28;20087;-81
2024/02/01 10:02:52;;;;;;;;;;;8.60;72.90;;;;;;5032738;28;20018;-81
2024/02/01 10:05:19;;;;;;;2.28;1.05;;;8.60;73.10;;;;;;5032450;28;19905;-81
2024/02/01 10:07:45;;;;;;;2.20;1.17;;;8.50;73.50;;;;;;5032274;28;20025;-80
2024/02/01 10:10:13;;;;;;;1.13;0.80;;;8.50;72.80;;;;;;5014571;28;20489;-80
2024/02/01 10:12:41;;;;;;;1.92;0.98;;;8.60;72.50;;;;;;5032298;28;20034;-80
2024/02/01 10:15:11;;;;;;;2.47;1.00;;;8.60;72.40;;;;;;5034163;28;20013;-81
2024/02/01 10:17:46;;;;;;;2.88;1.10;;;8.60;72.80;;;;;;5037364;28;20032;-79
2024/02/01 10:20:33;;;;;;;1.10;0.82;;;8.70;72.40;;;;;;5037734;28;20021;-80
2024/02/01 10:23:03;;;;;;;1.55;1.00;;;8.60;72.80;;;;;;5037664;28;20542;-82
2024/02/01 10:25:33;;;;;;;2.47;1.38;;;8.70;72.40;;;;;;5038924;28;20033;-80
2024/02/01 10:28:04;;;;;;;4.18;1.33;;;8.70;72.80;;;;;;5041215;28;20030;-81
2024/02/01 10:30:31;;;;;;;2.03;1.50;;;8.70;73.00;;;;;;5023232;28;20021;-81
2024/02/01 10:33:03;;;;;;;2.65;1.30;;;8.70;73.20;;;;;;5040894;28;20117;-81
2024/02/01 10:35:33;;;;;;;0.85;0.82;;;8.70;73.00;;;;;;5041532;28;20025;-81
2024/02/01 10:38:01;;;;;;;1.20;1.10;;;8.70;73.80;;;;;;5023066;28;20049;-78
2024/02/01 10:40:39;;;;;;;1.98;1.02;;;8.70;74.40;;;;;;5040937;28;20351;-80
2024/02/01 10:43:06;;;;;;;1.55;1.15;;;8.70;74.10;;;;;;5041210;28;20026;-79
2024/02/01 10:45:36;;;;;;;1.92;1.20;;;8.70;74.20;;;;;;5041158;28;20025;-79
2024/02/01 10:48:10;;;;;;;2.05;1.30;;;8.70;74.00;;;;;;5040418;28;20109;-79
2024/02/01 10:50:38;;;;;;;1.20;1.10;;;8.80;73.80;;;;;;5040591;28;20454;-79
2024/02/01 10:53:06;;;;;;;4.43;1.45;;;8.70;74.60;;;;;;5040815;28;20079;-79
2024/02/01 10:55:32;;;;;;;1.52;0.95;;;8.60;74.80;;;;;;5022819;28;20378;-78
2024/02/01 10:57:59;;;;;;;2.33;1.10;;;8.60;75.00;;;;;;5040448;28;20029;-80
2024/02/01 11:00:27;;;;;;;1.92;1.25;;;8.60;75.50;;;;;;5040819;28;20025;-78
2024/02/01 11:02:55;;;;;;;4.45;1.58;;;8.60;75.60;;;;;;5040495;28;20022;-78
2024/02/01 11:05:31;;;;;;;2.05;1.45;;;8.50;76.80;;;;;;5040123;28;20105;-80
2024/02/01 11:07:57;;;;;;;3.55;1.60;;;8.60;77.00;;;;;;5040639;28;20108;-79
2024/02/01 11:10:24;;;;;;;2.63;1.70;;;8.70;76.90;;;;;;5040754;28;20474;-79
2024/02/01 11:12:54;;;;;;;2.20;1.48;;;8.70;76.50;;;;;;5039804;28;20060;-78
2024/02/01 11:15:25;;;;;;;1.45;1.30;;;8.70;76.50;;;;;;5039844;28;20021;-77
2024/02/01 11:17:51;;;;;;;2.13;1.40;;;8.80;76.80;;;;;;5034811;28;20033;-79
2024/02/01 11:20:25;;;;;;;1.40;1.20;;;8.80;76.10;;;;;;5034741;28;20021;-81
2024/02/01 11:22:58;;;;;;;1.88;1.50;;;8.80;76.00;;;;;;5034643;28;20021;-80
2024/02/01 11:25:33;;;;;;;9.52;5.53;;;8.90;75.90;;;;;;5034858;28;20153;-80
2024/02/01 11:28:00;;;;;;;14.88;7.50;;;8.90;75.90;;;;;;5034752;28;20037;-80
2024/02/01 11:30:31;;;;;;;15.50;8.07;;;8.90;75.80;;;;;;5034628;28;20576;-79
2024/02/01 11:32:57;;;;;;;9.82;5.68;;;9.00;76.10;;;;;;5034491;28;20041;-81
2024/02/01 11:35:23;;;;;;;5.18;2.55;;;9.00;75.80;;;;;;5034581;28;20032;-79
2024/02/01 11:38:01;;;;;;;6.30;3.53;;;9.10;75.80;;;;;;5034744;28;20148;-79
2024/02/01 11:40:29;;;;;;;6.20;4.07;;;9.20;75.20;;;;;;5034309;28;20056;-79
2024/02/01 11:42:58;;;;;;;2.10;1.45;;;9.20;75.20;;;;;;5034200;28;20087;-78
2024/02/01 11:45:24;;;;;;;3.88;1.48;;;9.00;75.80;;;;;;5034736;28;20026;-78
2024/02/01 11:47:51;;;;;;;3.50;1.50;;;9.00;76.20;;;;;;5036034;28;20463;-80
2024/02/01 11:50:17;;;;;;;2.20;1.50;;;9.00;76.20;;;;;;5034404;28;20371;-80
2024/02/01 11:52:53;;;;;;;2.75;1.45;;;9.00;76.80;;;;;;5034089;28;20033;-79
2024/02/01 11:55:20;;;;;;;4.57;1.45;;;9.10;76.20;;;;;;5033916;28;20419;-77
2024/02/01 11:57:47;;;;;;;2.40;1.40;;;9.00;77.20;;;;;;5034192;28;20060;-78
2024/02/01 12:00:18;;;;;;;3.92;1.80;;;9.00;76.80;;;;;;5034105;28;20022;-79
2024/02/01 12:02:47;;;;;;;1.85;1.27;;;9.10;76.60;;;;;;5034339;28;20136;-80
2024/02/01 12:05:17;;;;;;;2.30;1.60;;;9.10;76.50;;;;;;5034330;28;20074;-78
2024/02/01 12:07:44;;;;;;;3.60;1.70;;;9.20;76.50;;;;;;5016930;28;20028;-80
2024/02/01 12:10:11;;;;;;;2.00;1.27;;;9.10;77.00;;;;;;5020274;28;20025;-78
2024/02/01 12:12:37;;;;;;;2.58;1.80;;;9.10;77.00;;;;;;5036606;28;20041;-81
2024/02/01 12:15:04;;;;;;;3.15;1.55;;;9.20;76.50;;;;;;5041678;28;20084;-80
2024/02/01 12:17:50;;;;;;;3.67;1.70;;;9.20;76.00;;;;;;5035635;28;20022;-81
2024/02/01 12:20:16;;;;;;;4.20;1.80;;;9.30;76.20;;;;;;5014550;28;20036;-82
2024/02/01 12:22:46;;;;;;;4.30;1.45;;;9.40;76.20;;;;;;5032101;28;20018;-77
2024/02/01 12:25:20;;;;;;;2.28;1.85;;;9.40;76.00;;;;;;5034201;28;20029;-81
2024/02/01 12:27:46;;;;;;;5.22;1.70;;;9.40;76.50;;;;;;5033895;28;20025;-80
2024/02/01 12:30:14;;;;;;;3.42;2.03;;;9.50;76.20;;;;;;5034027;28;20032;-81
2024/02/01 12:32:45;;;;;;;1.70;1.23;;;9.40;76.40;;;;;;5033918;28;20060;-81
2024/02/01 12:35:12;;;;;;;2.90;1.58;;;9.40;76.40;;;;;;5037635;28;20434;-83
2024/02/01 12:37:41;;;;;;;1.65;1.23;;;9.40;76.70;;;;;;5034069;28;20052;-80
2024/02/01 12:40:11;;;;;;;3.10;2.03;;;9.40;77.00;;;;;;5033915;28;20405;-82
2024/02/01 12:42:45;;;;;;;2.50;2.03;;;9.40;76.70;;;;;;5033613;28;20021;-80
2024/02/01 12:45:20;;;;;;;0.95;0.75;;;9.30;76.80;;;;;;5016153;28;20104;-82
2024/02/01 12:47:51;;;;;;;3.60;1.20;;;9.30;76.80;;;;;;5033484;28;20021;-81
2024/02/01 12:50:18;;;;;;;1.33;1.02;;;9.20;77.10;;;;;;5033910;28;20018;-81
2024/02/01 12:52:44;;;;;;;3.22;1.40;;;9.20;77.20;;;;;;5035451;28;20037;-81
2024/02/01 12:55:11;;;;;;;3.10;0.93;;;9.30;77.20;;;;;;5034312;28;20434;-81
2024/02/01 12:57:38;;;;;;;5.28;2.60;;;9.30;77.20;;;;;;5033571;28;20025;-80
2024/02/01 13:00:05;;;;;;;0.60;0.60;;;9.30;76.90;;;;;;5016491;28;20443;-81
2024/02/01 13:02:32;;;;;;;0.93;0.70;;;9.20;77.10;;;;;;5033781;28;20124;-77
2024/02/01 13:04:58;;;;;;;0.80;0.70;;;9.10;76.90;;;;;;5033688;28;20033;-78
2024/02/01 13:07:23;;;;;;;1.17;0.90;;;9.20;77.80;;;;;;5034548;28;20026;-81
2024/02/01 13:09:49;;;;;;;2.10;1.10;;;9.30;77.00;;;;;;5033550;28;20013;-80
2024/02/01 13:12:24;;;;;;;1.25;0.82;;;9.30;77.50;;;;;;5033309;28;20044;-81
2024/02/01 13:14:57;;;;;;;0.60;0.50;;;9.20;78.00;;;;;;5033495;28;20083;-79
2024/02/01 13:17:32;;;;;;;0.82;0.52;;;9.20;78.20;;;;;;5033268;28;20025;-81
2024/02/01 13:19:59;;;;;;;1.75;0.60;;;9.30;78.00;;;;;;5033444;28;20033;-81
2024/02/01 13:22:25;;;;;;;1.10;0.70;;;9.40;78.50;;;;;;5033335;28;20144;-78
2024/02/01 13:24:51;;;;;;;1.48;0.80;;;9.50;78.40;;;;;;5015943;28;20067;-82
2024/02/01 13:27:17;;;;;;;0.65;0.60;;;9.90;76.60;;;;;;5033668;28;20024;-82
2024/02/01 13:29:43;;;;;;;2.17;0.80;;;10.20;75.20;;;;;;5033419;28;20038;-81
2024/02/01 13:32:13;;;;;;;0.70;0.35;;;10.40;73.70;;;;;;5033911;28;20551;-83
2024/02/01 13:34:39;;;;;;;0.20;0.20;;;11.30;68.80;;;;;;5033563;28;20067;-81
2024/02/01 13:37:09;;;;;;;0.28;0.28;;;11.60;65.70;;;;;;5033828;28;20045;-82
2024/02/01 13:39:35;;;;;;;0.30;0.25;;;11.30;64.80;;;;;;5034278;28;20025;-79
2024/02/01 13:42:03;;;;;;;1.23;0.65;;;11.50;65.40;;;;;;5018987;28;20036;-82
2024/02/01 13:44:29;;;;;;;3.15;0.52;;;11.50;64.90;;;;;;5038626;28;20017;-82
2024/02/01 13:46:55;;;;;;;1.02;0.50;;;11.20;65.60;;;;;;5034277;28;20029;-82
2024/02/01 13:49:20;;;;;;;0.65;0.60;;;10.50;69.60;;;;;;5034319;28;20033;-81
2024/02/01 13:51:46;;;;;;;0.50;0.50;;;10.30;70.70;;;;;;5033895;28;20429;-81
2024/02/01 13:54:12;;;;;;;0.40;0.30;;;10.30;70.70;;;;;;5034320;28;20097;-82
2024/02/01 13:56:38;;;;;;;1.55;0.57;;;10.20;71.00;;;;;;5033385;28;20103;-83
2024/02/01 13:59:04;;;;;;;1.40;0.90;;;10.00;72.10;;;;;;5032909;28;20479;-82
2024/02/01 14:01:30;;;;;;;3.35;0.95;;;9.90;73.00;;;;;;5019223;28;20037;-82
2024/02/01 14:04:00;;;;;;;5.05;3.72;;;9.90;73.60;;;;;;5037016;28;20034;-81
2024/02/01 14:06:25;;;;;;;6.55;5.20;;;9.90;73.70;;;;;;5037987;28;20029;-82